createdAt,value
2019-05-07T00:01:19.992Z,98574.93
2019-05-07T00:04:25.795Z,98573.33
2019-05-07T00:07:32.145Z,98575.87
2019-05-07T00:10:37.970Z,98585.69
2019-05-07T00:13:44.524Z,98595.42
2019-05-07T00:16:50.347Z,98593.78
2019-05-07T00:19:56.070Z,98603.83
2019-05-07T00:23:02.966Z,98610.77
2019-05-07T00:26:08.966Z,98606.22
2019-05-07T00:29:14.671Z,98617.02
2019-05-07T00:32:22.201Z,98619.80
2019-05-07T00:35:32.409Z,98623.20
2019-05-07T00:38:42.726Z,98623.97
2019-05-07T00:41:55.350Z,98632.06
2019-05-07T00:45:17.830Z,98627.27
2019-05-07T00:48:17.043Z,98636.46
2019-05-07T00:51:33.552Z,98644.55
2019-05-07T00:54:39.416Z,98658.16
2019-05-07T00:57:45.180Z,98659.83
2019-05-07T01:00:52.971Z,98661.69
2019-05-07T01:03:58.243Z,98659.75
2019-05-07T01:07:04.149Z,98654.68
2019-05-07T01:10:12.722Z,98656.02
2019-05-07T01:13:18.535Z,98657.05
2019-05-07T01:16:24.381Z,98668.56
2019-05-07T01:19:30.125Z,98669.95
2019-05-07T01:22:36.676Z,98668.51
2019-05-07T01:25:43.170Z,98669.01
2019-05-07T01:29:03.050Z,98668.11
2019-05-07T01:32:17.082Z,98672.85
2019-05-07T01:35:42.333Z,98672.66
2019-05-07T01:38:48.097Z,98676.66
2019-05-07T01:41:53.846Z,98679.53
2019-05-07T01:44:59.586Z,98682.38
2019-05-07T01:48:05.449Z,98682.47
2019-05-07T01:51:12.864Z,98676.91
2019-05-07T01:54:18.733Z,98675.84
2019-05-07T01:57:24.662Z,98684.23
2019-05-07T02:00:32.468Z,98679.90
2019-05-07T02:03:56.333Z,98685.67
2019-05-07T02:07:20.273Z,98677.88
2019-05-07T02:10:52.307Z,98684.59
2019-05-07T02:13:58.168Z,98694.26
2019-05-07T02:17:03.963Z,98696.47
2019-05-07T02:20:10.551Z,98689.13
2019-05-07T02:23:16.392Z,98702.86
2019-05-07T02:26:22.683Z,98698.09
2019-05-07T02:29:28.523Z,98704.97
2019-05-07T02:32:35.417Z,98705.19
2019-05-07T02:35:43.911Z,98704.55
2019-05-07T02:38:57.489Z,98703.31
2019-05-07T02:42:03.774Z,98711.16
2019-05-07T02:45:44.255Z,98711.72
2019-05-07T02:48:59.592Z,98718.16
2019-05-07T02:52:32.339Z,98725.20
2019-05-07T02:55:45.400Z,98728.10
2019-05-07T02:58:52.805Z,98734.66
2019-05-07T03:01:58.763Z,98721.50
2019-05-07T03:05:05.570Z,98735.41
2019-05-07T03:08:13.407Z,98741.39
2019-05-07T03:11:18.885Z,98727.45
2019-05-07T03:14:24.664Z,98733.72
2019-05-07T03:17:33.210Z,98746.88
2019-05-07T03:20:53.474Z,98743.02
2019-05-07T03:24:13.810Z,98749.34
2019-05-07T03:27:18.114Z,98752.36
2019-05-07T03:30:56.617Z,98756.22
2019-05-07T03:34:07.335Z,98770.42
2019-05-07T03:37:15.093Z,98769.77
2019-05-07T03:40:23.088Z,98779.63
2019-05-07T03:43:28.234Z,98776.92
2019-05-07T03:46:52.039Z,98771.49
2019-05-07T03:49:43.064Z,98784.91
2019-05-07T03:52:48.846Z,98783.59
2019-05-07T03:55:54.827Z,98787.34
2019-05-07T03:59:03.453Z,98793.62
2019-05-07T04:02:08.154Z,98799.48
2019-05-07T04:05:14.563Z,98796.45
2019-05-07T04:08:23.289Z,98802.20
2019-05-07T04:11:27.969Z,98806.47
2019-05-07T04:14:34.952Z,98799.02
2019-05-07T04:17:42.970Z,98806.21
2019-05-07T04:20:48.358Z,98810.27
2019-05-07T04:24:13.575Z,98803.80
2019-05-07T04:27:25.770Z,98814.86
2019-05-07T04:30:33.183Z,98814.86
2019-05-07T04:33:43.969Z,98822.94
2019-05-07T04:36:53.228Z,98817.92
2019-05-07T04:39:57.636Z,98818.38
2019-05-07T04:43:03.442Z,98817.64
2019-05-07T04:46:09.155Z,98813.75
2019-05-07T04:49:14.973Z,98823.02
2019-05-07T04:52:27.380Z,98824.46
2019-05-07T04:55:33.639Z,98824.75
2019-05-07T04:58:39.467Z,98822.22
2019-05-07T05:01:53.216Z,98828.84
2019-05-07T05:04:58.742Z,98836.17
2019-05-07T05:08:04.528Z,98828.07
2019-05-07T05:11:12.588Z,98836.20
2019-05-07T05:14:17.653Z,98836.95
2019-05-07T05:17:23.301Z,98844.16
2019-05-07T05:21:02.948Z,98846.91
2019-05-07T05:24:16.392Z,98849.55
2019-05-07T05:27:22.615Z,98854.50
2019-05-07T05:30:38.846Z,98857.12
2019-05-07T05:33:44.567Z,98857.78
2019-05-07T05:36:53.219Z,98859.78
2019-05-07T05:40:06.253Z,98870.95
2019-05-07T05:43:31.938Z,98869.13
2019-05-07T05:46:38.054Z,98871.70
2019-05-07T05:49:43.874Z,98881.25
2019-05-07T05:52:55.503Z,98882.80
2019-05-07T05:56:04.257Z,98879.13
2019-05-07T05:59:27.734Z,98882.83
2019-05-07T06:02:58.573Z,98882.80
2019-05-07T06:06:23.442Z,98881.98
2019-05-07T06:09:57.674Z,98889.38
2019-05-07T06:13:23.095Z,98888.47
2019-05-07T06:16:36.708Z,98884.53
2019-05-07T06:19:51.983Z,98888.39
2019-05-07T06:23:35.160Z,98888.06
2019-05-07T06:26:42.566Z,98888.87
2019-05-07T06:29:48.518Z,98888.20
2019-05-07T06:32:54.347Z,98886.86
2019-05-07T06:36:02.670Z,98881.61
2019-05-07T06:39:17.734Z,98902.61
2019-05-07T06:42:48.555Z,98887.96
2019-05-07T06:45:56.265Z,98896.78
2019-05-07T06:49:02.309Z,98892.52
2019-05-07T06:52:09.292Z,98899.45
2019-05-07T06:55:15.672Z,98902.84
2019-05-07T06:58:22.804Z,98893.94
2019-05-07T07:01:56.640Z,98897.61
2019-05-07T07:05:09.573Z,98902.64
2019-05-07T07:08:23.464Z,98893.47
2019-05-07T07:11:35.158Z,98900.03
2019-05-07T07:14:42.387Z,98901.00
2019-05-07T07:17:48.755Z,98893.00
2019-05-07T07:20:54.696Z,98893.00
2019-05-07T07:24:02.846Z,98914.30
2019-05-07T07:27:07.949Z,98892.81
2019-05-07T07:30:25.441Z,98909.53
2019-05-07T07:33:33.297Z,98910.25
2019-05-07T07:36:45.754Z,98887.81
2019-05-07T07:39:54.622Z,98895.42
2019-05-07T07:43:02.761Z,98896.55
2019-05-07T07:46:09.519Z,98898.16
2019-05-07T07:49:15.473Z,98902.87
2019-05-07T07:52:22.983Z,98911.20
2019-05-07T07:55:35.134Z,98901.54
2019-05-07T07:59:01.893Z,98906.35
2019-05-07T08:02:22.984Z,98907.25
2019-05-07T08:05:29.975Z,98922.90
2019-05-07T08:08:35.673Z,98910.84
2019-05-07T08:11:42.545Z,98915.36
2019-05-07T08:14:48.522Z,98914.63
2019-05-07T08:17:54.317Z,98912.61
2019-05-07T08:21:02.447Z,98912.70
2019-05-07T08:24:07.532Z,98935.83
2019-05-07T08:27:15.341Z,98919.27
2019-05-07T08:30:23.519Z,98915.30
2019-05-07T08:33:32.889Z,98936.91
2019-05-07T08:36:38.674Z,98941.66
2019-05-07T08:39:45.424Z,98916.70
2019-05-07T08:42:52.737Z,98938.42
2019-05-07T08:46:23.449Z,98930.61
2019-05-07T08:49:37.056Z,98939.44
2019-05-07T08:52:36.759Z,98924.83
2019-05-07T08:55:42.577Z,98911.22
2019-05-07T08:58:48.418Z,98903.09
2019-05-07T09:01:54.319Z,98914.98
2019-05-07T09:05:00.034Z,98913.86
2019-05-07T09:08:05.796Z,98908.86
2019-05-07T09:11:13.298Z,98905.30
2019-05-07T09:14:19.199Z,98915.74
2019-05-07T09:17:24.949Z,98909.52
2019-05-07T09:20:32.126Z,98909.34
2019-05-07T09:23:38.148Z,98918.37
2019-05-07T09:26:57.048Z,98906.62
2019-05-07T09:30:41.987Z,98901.09
2019-05-07T09:33:49.357Z,98906.33
2019-05-07T09:36:56.791Z,98904.00
2019-05-07T09:40:02.952Z,98901.17
2019-05-07T09:43:08.810Z,98923.97
2019-05-07T09:46:14.570Z,98915.96
2019-05-07T09:49:22.141Z,98930.11
2019-05-07T09:52:27.673Z,98930.70
2019-05-07T09:55:33.496Z,98932.00
2019-05-07T09:58:39.391Z,98916.93
2019-05-07T10:01:46.294Z,98921.80
2019-05-07T10:04:52.752Z,98919.33
2019-05-07T10:07:58.668Z,98927.72
2019-05-07T10:11:06.264Z,98924.11
2019-05-07T10:14:12.668Z,98927.95
2019-05-07T10:17:40.029Z,98931.86
2019-05-07T10:20:45.964Z,98930.40
2019-05-07T10:23:52.199Z,98923.88
2019-05-07T10:26:58.322Z,98919.36
2019-05-07T10:30:04.922Z,98934.00
2019-05-07T10:33:12.448Z,98930.16
2019-05-07T10:36:18.436Z,98939.09
2019-05-07T10:39:24.883Z,98934.80
2019-05-07T10:42:32.284Z,98929.81
2019-05-07T10:45:48.846Z,98934.01
2019-05-07T10:49:01.807Z,98938.41
2019-05-07T10:52:07.744Z,98942.47
2019-05-07T10:55:17.043Z,98943.06
2019-05-07T10:58:21.903Z,98938.54
2019-05-07T11:01:37.410Z,98946.89
2019-05-07T11:04:46.621Z,98945.39
2019-05-07T11:07:53.888Z,98944.00
2019-05-07T11:10:59.913Z,98948.27
2019-05-07T11:14:05.945Z,98952.62
2019-05-07T11:17:32.627Z,98948.13
2019-05-07T11:20:49.127Z,98964.91
2019-05-07T11:23:46.347Z,98960.25
2019-05-07T11:26:53.156Z,98961.69
2019-05-07T11:30:02.565Z,98969.25
2019-05-07T11:33:09.228Z,98966.91
2019-05-07T11:36:15.066Z,98975.79
2019-05-07T11:39:22.625Z,98966.55
2019-05-07T11:42:47.279Z,98975.30
2019-05-07T11:46:06.205Z,98979.92
2019-05-07T11:49:22.738Z,98981.09
2019-05-07T11:52:35.903Z,98988.42
2019-05-07T11:55:42.143Z,98968.84
2019-05-07T11:58:50.647Z,98975.38
2019-05-07T12:02:00.137Z,98985.13
2019-05-07T12:05:06.158Z,98961.09
2019-05-07T12:08:13.207Z,98979.87
2019-05-07T12:11:19.463Z,98988.45
2019-05-07T12:14:31.404Z,98978.75
2019-05-07T12:17:32.582Z,98996.50
2019-05-07T12:20:38.890Z,99008.52
2019-05-07T12:23:44.629Z,99009.73
2019-05-07T12:26:52.250Z,99020.84
2019-05-07T12:29:58.174Z,99013.31
2019-05-07T12:33:32.510Z,99028.86
2019-05-07T12:36:40.267Z,99020.23
2019-05-07T12:39:45.977Z,98991.83
2019-05-07T12:42:52.452Z,99003.25
2019-05-07T12:45:58.173Z,99010.64
2019-05-07T12:49:04.165Z,99008.64
2019-05-07T12:52:22.778Z,99017.27
2019-05-07T12:55:38.957Z,99019.05
2019-05-07T12:58:45.023Z,99020.93
2019-05-07T13:02:21.823Z,99018.52
2019-05-07T13:05:23.090Z,99021.86
2019-05-07T13:08:29.236Z,99031.00
2019-05-07T13:11:35.517Z,99038.34
2019-05-07T13:14:42.624Z,99041.31
2019-05-07T13:17:48.426Z,99051.34
2019-05-07T13:20:54.812Z,99063.29
2019-05-07T13:24:02.609Z,99063.74
2019-05-07T13:27:09.057Z,99061.68
2019-05-07T13:30:15.509Z,99082.80
2019-05-07T13:33:22.951Z,99081.66
2019-05-07T13:36:29.054Z,99075.00
2019-05-07T13:39:43.000Z,99096.42
2019-05-07T13:43:05.328Z,99081.25
2019-05-07T13:46:13.770Z,99092.11
2019-05-07T13:49:21.944Z,99088.63
2019-05-07T13:52:27.645Z,99094.23
2019-05-07T13:55:33.583Z,99093.19
2019-05-07T13:58:39.658Z,99099.91
2019-05-07T14:02:13.838Z,99113.09
2019-05-07T14:05:17.929Z,99110.13
2019-05-07T14:08:25.558Z,99115.47
2019-05-07T14:11:32.253Z,99117.79
2019-05-07T14:14:38.814Z,99116.86
2019-05-07T14:17:44.817Z,99126.79
2019-05-07T14:20:52.464Z,99134.31
2019-05-07T14:23:58.479Z,99144.20
2019-05-07T14:27:04.377Z,99146.61
2019-05-07T14:30:12.782Z,99156.91
2019-05-07T14:33:30.113Z,99169.18
2019-05-07T14:36:44.949Z,99165.17
2019-05-07T14:39:51.781Z,99176.95
2019-05-07T14:43:04.365Z,99173.66
2019-05-07T14:46:12.017Z,99177.84
2019-05-07T14:49:18.747Z,99171.06
2019-05-07T14:52:32.689Z,99182.59
2019-05-07T14:55:32.524Z,99181.73
2019-05-07T14:58:38.760Z,99185.20
2019-05-07T15:01:44.586Z,99175.86
2019-05-07T15:04:52.482Z,99202.89
2019-05-07T15:08:08.355Z,99191.14
2019-05-07T15:11:05.734Z,99195.94
2019-05-07T15:14:12.125Z,99202.72
2019-05-07T15:17:27.372Z,99197.43
2019-05-07T15:20:33.384Z,99221.30
2019-05-07T15:23:42.294Z,99214.11
2019-05-07T15:26:50.199Z,99217.42
2019-05-07T15:29:56.132Z,99222.77
2019-05-07T15:33:02.393Z,99223.87
2019-05-07T15:36:08.326Z,99209.50
2019-05-07T15:39:14.156Z,99214.94
2019-05-07T15:42:22.100Z,99230.31
2019-05-07T15:45:27.512Z,99229.25
2019-05-07T15:48:35.720Z,99234.72
2019-05-07T15:51:54.949Z,99241.67
2019-05-07T15:55:02.612Z,99244.30
2019-05-07T15:58:09.080Z,99242.19
2019-05-07T16:01:14.919Z,99239.95
2019-05-07T16:04:25.499Z,99245.37
2019-05-07T16:07:28.225Z,99251.16
2019-05-07T16:10:33.932Z,99254.80
2019-05-07T16:13:42.693Z,99260.11
2019-05-07T16:16:48.784Z,99262.97
2019-05-07T16:19:55.199Z,99268.19
2019-05-07T16:23:14.454Z,99283.18
2019-05-07T16:26:12.541Z,99284.78
2019-05-07T16:29:18.102Z,99276.48
2019-05-07T16:32:24.203Z,99282.38
2019-05-07T16:35:32.007Z,99292.56
2019-05-07T16:38:37.845Z,99290.08
2019-05-07T16:41:43.484Z,99296.53
2019-05-07T16:44:49.278Z,99299.98
2019-05-07T16:47:55.139Z,99302.13
2019-05-07T16:51:02.351Z,99301.11
2019-05-07T16:54:09.034Z,99314.89
2019-05-07T16:57:42.518Z,99308.52
2019-05-07T17:00:52.875Z,99318.31
2019-05-07T17:03:59.759Z,99329.29
2019-05-07T17:07:07.357Z,99321.11
2019-05-07T17:10:14.008Z,99330.91
2019-05-07T17:13:19.759Z,99322.36
2019-05-07T17:16:25.664Z,99337.95
2019-05-07T17:19:31.969Z,99337.91
2019-05-07T17:22:37.813Z,99342.22
2019-05-07T17:25:43.567Z,99347.59
2019-05-07T17:28:49.313Z,99346.59
2019-05-07T17:31:55.108Z,99345.49
2019-05-07T17:35:02.584Z,99364.89
2019-05-07T17:38:10.050Z,99373.70
2019-05-07T17:41:22.454Z,99373.16
2019-05-07T17:44:24.099Z,99380.26
2019-05-07T17:47:32.014Z,99375.70
2019-05-07T17:50:46.062Z,99385.84
2019-05-07T17:53:59.771Z,99392.21
2019-05-07T17:56:59.357Z,99394.16
2019-05-07T18:00:05.943Z,99397.63
2019-05-07T18:03:32.331Z,99406.20
2019-05-07T18:06:39.663Z,99406.69
2019-05-07T18:09:46.403Z,99409.70
2019-05-07T18:12:53.744Z,99418.08
2019-05-07T18:16:09.497Z,99422.89
2019-05-07T18:19:15.285Z,99432.15
2019-05-07T18:22:38.778Z,99435.67
2019-05-07T18:25:44.767Z,99437.39
2019-05-07T18:28:52.235Z,99438.59
2019-05-07T18:32:01.478Z,99443.84
2019-05-07T18:35:07.370Z,99451.08
2019-05-07T18:38:13.036Z,99454.00
2019-05-07T18:41:18.819Z,99461.55
2019-05-07T18:44:24.657Z,99473.18
2019-05-07T18:47:30.314Z,99472.65
2019-05-07T18:50:36.067Z,99468.23
2019-05-07T18:53:42.486Z,99471.83
2019-05-07T18:56:48.363Z,99474.04
2019-05-07T18:59:54.098Z,99474.67
2019-05-07T19:02:59.898Z,99473.33
2019-05-07T19:06:05.710Z,99478.56
2019-05-07T19:09:11.493Z,99471.02
2019-05-07T19:12:22.110Z,99472.66
2019-05-07T19:15:27.587Z,99476.88
2019-05-07T19:18:33.297Z,99477.56
2019-05-07T19:21:39.199Z,99474.15
2019-05-07T19:24:48.034Z,99471.36
2019-05-07T19:27:52.657Z,99482.17
2019-05-07T19:30:58.634Z,99478.24
2019-05-07T19:34:04.717Z,99483.77
2019-05-07T19:37:10.442Z,99485.80
2019-05-07T19:40:16.498Z,99490.52
2019-05-07T19:43:22.307Z,99485.14
2019-05-07T19:46:44.704Z,99491.39
2019-05-07T19:49:52.334Z,99496.27
2019-05-07T19:52:57.811Z,99492.69
2019-05-07T19:56:10.160Z,99484.17
2019-05-07T19:59:15.959Z,99492.02
2019-05-07T20:02:26.928Z,99490.06
2019-05-07T20:05:32.355Z,99488.42
2019-05-07T20:08:38.493Z,99486.62
2019-05-07T20:11:48.892Z,99488.41
2019-05-07T20:14:54.611Z,99487.73
2019-05-07T20:18:00.410Z,99489.66
2019-05-07T20:21:25.826Z,99497.05
2019-05-07T20:24:32.608Z,99502.81
2019-05-07T20:27:39.060Z,99508.36
2019-05-07T20:30:44.860Z,99494.42
2019-05-07T20:33:52.835Z,99496.92
2019-05-07T20:36:58.024Z,99502.48
2019-05-07T20:40:05.813Z,99503.73
2019-05-07T20:43:12.616Z,99500.72
2019-05-07T20:46:19.575Z,99501.28
2019-05-07T20:49:25.339Z,99505.38
2019-05-07T20:52:32.521Z,99501.45
2019-05-07T20:55:47.689Z,99498.67
2019-05-07T20:58:53.513Z,99505.22
2019-05-07T21:01:59.247Z,99501.77
2019-05-07T21:05:06.238Z,99502.75
2019-05-07T21:08:12.087Z,99505.13
2019-05-07T21:11:17.950Z,99495.50
2019-05-07T21:14:23.721Z,99507.48
2019-05-07T21:17:32.223Z,99504.43
2019-05-07T21:20:38.230Z,99510.73
2019-05-07T21:23:44.040Z,99516.70
2019-05-07T21:26:53.582Z,99517.36
2019-05-07T21:29:59.390Z,99518.33
2019-05-07T21:33:05.456Z,99514.42
2019-05-07T21:36:12.128Z,99515.62
2019-05-07T21:39:18.194Z,99519.16
2019-05-07T21:42:23.873Z,99515.07
2019-05-07T21:45:29.613Z,99516.11
2019-05-07T21:48:35.990Z,99518.34
2019-05-07T21:51:41.724Z,99516.14
2019-05-07T21:55:12.826Z,99513.70
2019-05-07T21:58:29.139Z,99519.97
2019-05-07T22:01:46.468Z,99514.56
2019-05-07T22:04:52.897Z,99513.50
2019-05-07T22:07:58.654Z,99507.72
2019-05-07T22:11:04.724Z,99512.54
2019-05-07T22:14:12.636Z,99507.98
2019-05-07T22:17:22.030Z,99512.16
2019-05-07T22:20:28.822Z,99512.80
2019-05-07T22:23:38.877Z,99509.31
2019-05-07T22:26:44.535Z,99505.06
2019-05-07T22:29:52.582Z,99515.84
2019-05-07T22:33:03.163Z,99507.98
2019-05-07T22:36:08.919Z,99511.25
2019-05-07T22:39:19.022Z,99508.50
2019-05-07T22:42:26.268Z,99504.08
2019-05-07T22:45:32.878Z,99506.99
2019-05-07T22:48:38.599Z,99512.13
2019-05-07T22:51:44.324Z,99511.98
2019-05-07T22:54:52.451Z,99510.80
2019-05-07T22:58:08.999Z,99508.08
2019-05-07T23:01:14.689Z,99518.34
2019-05-07T23:04:22.822Z,99519.98
2019-05-07T23:07:28.078Z,99515.59
2019-05-07T23:10:35.769Z,99517.51
2019-05-07T23:13:46.171Z,99518.03
2019-05-07T23:16:55.385Z,99511.61
2019-05-07T23:20:00.361Z,99518.52
2019-05-07T23:23:06.002Z,99512.59
2019-05-07T23:26:14.907Z,99516.50
2019-05-07T23:29:22.484Z,99519.47
2019-05-07T23:32:28.231Z,99526.41
2019-05-07T23:35:34.024Z,99515.23
2019-05-07T23:38:39.718Z,99514.05
2019-05-07T23:41:56.253Z,99517.81
2019-05-07T23:45:02.155Z,99516.83
2019-05-07T23:48:07.955Z,99522.95
2019-05-07T23:51:13.613Z,99517.73
2019-05-07T23:54:19.321Z,99523.28
2019-05-07T23:57:25.146Z,99518.28
